Time;durP1;ratioP1;P1;durP2;ratioP2;P2;SDS_P1;SDS_P2;PMS_P1;PMS_P2;Temp;Humidity;BMP_temperature;BMP_pressure;BME280_temperature;BME280_humidity;BME280_pressure;Samples;Min_cycle;Max_cycle;Signal;HPM_P1;HPM_P2
2023/07/15 00:01:24;;;;;;;4.20;3.00;;;;;;;19.07;67.41;99809.88;4954362;28;20229;-70
2023/07/15 00:03:52;;;;;;;4.50;2.93;;;;;;;19.16;67.18;99820.34;4951410;29;20198;-72
2023/07/15 00:06:21;;;;;;;4.63;3.10;;;;;;;19.11;67.90;99824.97;4954991;29;20218;-67
2023/07/15 00:08:48;;;;;;;5.93;3.37;;;;;;;18.99;68.09;99826.22;4947930;28;20285;-70
2023/07/15 00:11:29;;;;;;;5.87;3.00;;;;;;;18.94;68.17;99821.94;4954347;29;20622;-68
2023/07/15 00:13:57;;;;;;;5.30;3.10;;;;;;;18.78;69.05;99811.63;4950244;29;20600;-71
2023/07/15 00:16:25;;;;;;;5.93;3.63;;;;;;;18.79;69.24;99817.88;4952389;29;20221;-68
2023/07/15 00:18:51;;;;;;;5.00;3.43;;;;;;;18.68;70.54;99820.88;4954235;28;20268;-70
2023/07/15 00:21:22;;;;;;;6.23;3.30;;;;;;;18.61;70.99;99810.34;4954556;29;20289;-70
2023/07/15 00:23:57;;;;;;;4.37;3.20;;;;;;;18.58;70.36;99819.34;4949494;29;20190;-69
2023/07/15 00:26:28;;;;;;;4.90;3.20;;;;;;;18.49;72.14;99819.63;4952521;28;20233;-70
2023/07/15 00:28:55;;;;;;;9.30;3.50;;;;;;;18.40;71.90;99814.50;4952408;29;20559;-71
2023/07/15 00:31:23;;;;;;;6.70;3.43;;;;;;;18.52;71.96;99816.84;4954337;29;20705;-70
2023/07/15 00:33:50;;;;;;;4.80;3.20;;;;;;;18.61;71.87;99811.22;4954581;29;20222;-70
2023/07/15 00:36:16;;;;;;;4.80;2.93;;;;;;;18.55;71.49;99807.84;4953264;28;20675;-70
2023/07/15 00:38:44;;;;;;;4.87;3.30;;;;;;;18.52;72.51;99808.81;4954417;29;20194;-70
2023/07/15 00:41:29;;;;;;;4.30;3.20;;;;;;;18.41;72.94;99802.84;4953495;29;20225;-70
2023/07/15 00:43:58;;;;;;;4.93;3.40;;;;;;;18.27;73.57;99808.59;4948776;28;20222;-70
2023/07/15 00:46:38;;;;;;;7.27;3.50;;;;;;;18.15;74.92;99809.81;4954184;29;20226;-72
2023/07/15 00:49:13;;;;;;;5.20;3.27;;;;;;;18.07;76.28;99811.81;4948925;29;20209;-70
2023/07/15 00:51:43;;;;;;;8.43;3.70;;;;;;;18.06;77.00;99817.22;4954697;29;20209;-71
2023/07/15 00:54:11;;;;;;;6.07;3.50;;;;;;;18.02;77.41;99813.75;4935849;29;20309;-71
2023/07/15 00:56:40;;;;;;;7.10;3.60;;;;;;;18.00;77.53;99812.88;4953960;29;20314;-72
2023/07/15 00:59:09;;;;;;;4.37;3.70;;;;;;;17.92;78.02;99808.63;4954147;29;20210;-71
2023/07/15 01:01:36;;;;;;;5.00;3.37;;;;;;;17.79;78.46;99814.31;4949633;28;20202;-71
2023/07/15 01:04:03;;;;;;;6.13;2.97;;;;;;;17.66;79.16;99815.53;4956495;28;20194;-69
2023/07/15 01:06:33;;;;;;;5.87;3.50;;;;;;;17.64;80.77;99820.03;4950880;28;20223;-69
2023/07/15 01:09:00;;;;;;;5.13;3.43;;;;;;;17.61;81.49;99817.44;4959842;28;20666;-70
2023/07/15 01:11:29;;;;;;;6.17;3.60;;;;;;;17.54;81.15;99821.16;4952914;29;20750;-68
2023/07/15 01:13:56;;;;;;;5.90;3.20;;;;;;;17.49;82.16;99812.34;4949469;29;20225;-70
2023/07/15 01:16:23;;;;;;;5.83;3.37;;;;;;;17.58;82.68;99816.59;4952242;29;20249;-69
2023/07/15 01:18:50;;;;;;;5.77;3.57;;;;;;;17.54;82.75;99816.69;4954140;29;20206;-69
2023/07/15 01:21:19;;;;;;;6.10;3.13;;;;;;;17.46;83.57;99820.47;4954128;29;20199;-70
2023/07/15 01:23:48;;;;;;;5.03;3.23;;;;;;;17.39;84.06;99814.38;4952771;29;20257;-69
2023/07/15 01:26:14;;;;;;;6.13;3.63;;;;;;;17.39;84.87;99805.47;4952530;28;20226;-68
2023/07/15 01:28:41;;;;;;;6.23;3.57;;;;;;;17.60;84.23;99809.41;4952998;29;20203;-69
2023/07/15 01:31:08;;;;;;;5.13;3.67;;;;;;;17.60;83.64;99809.41;4952340;29;20203;-70
2023/07/15 01:33:34;;;;;;;5.67;3.17;;;;;;;17.44;83.43;99803.56;4952239;29;20221;-70
2023/07/15 01:36:02;;;;;;;4.70;3.10;;;;;;;17.36;84.26;99810.91;4952877;29;20321;-67
2023/07/15 01:38:29;;;;;;;5.00;3.57;;;;;;;17.40;85.10;99808.09;4942527;29;20202;-70
2023/07/15 01:40:55;;;;;;;5.83;3.60;;;;;;;17.48;84.29;99803.44;4936496;29;20202;-70
2023/07/15 01:43:21;;;;;;;5.57;3.47;;;;;;;17.46;84.08;99802.59;4951966;29;20294;-70
2023/07/15 01:45:48;;;;;;;5.17;3.40;;;;;;;17.38;84.31;99809.06;4952090;29;20222;-70
2023/07/15 01:48:14;;;;;;;3.90;3.33;;;;;;;17.31;84.96;99811.00;4953290;29;20210;-68
2023/07/15 01:50:42;;;;;;;4.17;3.37;;;;;;;17.23;86.15;99800.47;4952268;29;20233;-70
2023/07/15 01:53:09;;;;;;;5.60;3.70;;;;;;;17.23;86.33;99813.88;4953297;29;20642;-70
2023/07/15 01:55:35;;;;;;;7.90;3.70;;;;;;;17.30;86.61;99811.03;4951331;29;20630;-70
2023/07/15 01:58:01;;;;;;;5.10;3.70;;;;;;;17.23;85.77;99805.84;4953122;29;20241;-70
2023/07/15 02:00:28;;;;;;;6.03;4.13;;;;;;;17.10;86.23;99800.78;4951377;29;20690;-68
2023/07/15 02:02:55;;;;;;;8.07;3.53;;;;;;;17.20;87.10;99802.31;4952620;29;20199;-70
2023/07/15 02:05:21;;;;;;;5.67;4.00;;;;;;;17.22;86.28;99789.81;4950620;29;20218;-70
2023/07/15 02:07:48;;;;;;;4.63;3.60;;;;;;;17.30;85.32;99795.88;4947801;29;20579;-70
2023/07/15 02:10:15;;;;;;;6.87;4.17;;;;;;;17.40;84.51;99796.53;4951410;29;20218;-70
2023/07/15 02:12:41;;;;;;;4.97;3.43;;;;;;;17.21;85.11;99780.00;4952696;29;20202;-70
2023/07/15 02:15:08;;;;;;;6.70;3.77;;;;;;;17.16;85.97;99784.59;4951334;28;20218;-70
2023/07/15 02:17:34;;;;;;;4.63;3.70;;;;;;;17.14;86.21;99781.94;4952684;29;20205;-72
2023/07/15 02:20:01;;;;;;;5.70;3.50;;;;;;;17.02;86.63;99776.00;4951768;29;20441;-70
2023/07/15 02:22:27;;;;;;;6.97;3.90;;;;;;;17.06;87.25;99783.03;4951895;29;20289;-70
2023/07/15 02:24:54;;;;;;;6.13;3.33;;;;;;;17.08;87.02;99778.53;4952156;29;20222;-70
2023/07/15 02:27:20;;;;;;;5.27;3.60;;;;;;;17.16;86.79;99773.88;4935167;29;20241;-69
2023/07/15 02:29:47;;;;;;;5.97;3.27;;;;;;;17.19;85.55;99771.13;4952023;29;20198;-71
2023/07/15 02:32:15;;;;;;;6.13;3.47;;;;;;;17.27;85.56;99779.88;4952737;29;20289;-72
2023/07/15 02:34:42;;;;;;;5.87;3.47;;;;;;;17.18;86.24;99775.59;4950410;29;20226;-70
2023/07/15 02:37:08;;;;;;;6.23;3.70;;;;;;;17.13;87.30;99771.28;4952006;29;20666;-67
2023/07/15 02:39:35;;;;;;;4.90;3.13;;;;;;;16.97;88.46;99775.22;4952779;29;20278;-70
2023/07/15 02:42:02;;;;;;;4.20;3.30;;;;;;;16.86;89.10;99776.34;4946992;29;20203;-70
2023/07/15 02:44:29;;;;;;;6.83;3.90;;;;;;;16.74;90.76;99787.28;4952559;29;20277;-70
2023/07/15 02:46:55;;;;;;;6.90;3.53;;;;;;;16.89;89.64;99781.63;4952297;29;20202;-70
2023/07/15 02:49:22;;;;;;;6.70;3.50;;;;;;;16.88;88.94;99770.97;4948108;29;20209;-72
2023/07/15 02:51:48;;;;;;;6.77;3.50;;;;;;;16.96;89.28;99776.16;4951351;29;20198;-70
2023/07/15 02:54:14;;;;;;;5.37;3.63;;;;;;;17.01;89.24;99780.47;4951705;29;20218;-68
2023/07/15 02:56:41;;;;;;;5.17;3.60;;;;;;;16.92;89.31;99778.88;4951974;29;20249;-69
2023/07/15 02:59:07;;;;;;;4.90;3.43;;;;;;;16.89;89.13;99776.28;4951292;29;20655;-69
2023/07/15 03:01:34;;;;;;;5.33;3.50;;;;;;;16.92;88.56;99769.97;4952130;29;20208;-69
2023/07/15 03:04:01;;;;;;;4.77;3.40;;;;;;;16.93;89.09;99769.06;4950935;29;20495;-69
2023/07/15 03:06:28;;;;;;;4.10;3.13;;;;;;;16.94;88.93;99761.94;4949200;29;20226;-67
2023/07/15 03:08:54;;;;;;;5.80;3.23;;;;;;;16.92;88.65;99773.53;4950940;29;20202;-70
2023/07/15 03:11:20;;;;;;;4.73;3.67;;;;;;;16.91;88.46;99763.75;4951211;29;20220;-69
2023/07/15 03:13:47;;;;;;;6.00;3.50;;;;;;;17.05;88.94;99776.81;4951327;29;20232;-69
2023/07/15 03:16:13;;;;;;;7.47;3.10;;;;;;;16.98;87.40;99791.25;4950530;29;20253;-70
2023/07/15 03:18:40;;;;;;;4.23;3.30;;;;;;;16.77;89.29;99781.00;4949285;29;20236;-69
2023/07/15 03:21:07;;;;;;;5.30;3.30;;;;;;;16.74;90.28;99784.63;4948619;29;20205;-71
2023/07/15 03:23:33;;;;;;;6.40;3.33;;;;;;;16.59;91.06;99766.22;4952165;29;20233;-69
2023/07/15 03:25:59;;;;;;;4.30;3.17;;;;;;;16.68;90.70;99770.50;4949756;28;20230;-69
2023/07/15 03:28:26;;;;;;;5.53;3.40;;;;;;;16.71;89.82;99768.66;4949901;29;20573;-70
2023/07/15 03:30:52;;;;;;;5.33;3.50;;;;;;;16.82;89.79;99760.41;4951751;29;20684;-69
2023/07/15 03:33:19;;;;;;;5.30;3.57;;;;;;;16.84;90.38;99762.13;4951267;29;20663;-69
2023/07/15 03:35:45;;;;;;;3.60;3.13;;;;;;;16.85;90.32;99763.00;4947065;29;20222;-69
2023/07/15 03:38:11;;;;;;;6.13;3.60;;;;;;;16.89;90.39;99756.69;4951235;29;20194;-70
2023/07/15 03:40:38;;;;;;;6.53;3.13;;;;;;;16.96;89.52;99757.41;4948886;29;20233;-69
2023/07/15 03:43:04;;;;;;;3.93;3.17;;;;;;;16.97;89.35;99756.50;4934167;29;20675;-70
2023/07/15 03:45:30;;;;;;;5.70;3.37;;;;;;;16.88;90.04;99769.19;4950412;29;20214;-68
2023/07/15 03:47:57;;;;;;;9.27;3.73;;;;;;;17.08;88.32;99771.38;4946186;29;20563;-71
2023/07/15 03:50:24;;;;;;;5.17;3.30;;;;;;;17.08;88.61;99767.81;4949138;29;20501;-69
2023/07/15 03:52:50;;;;;;;5.63;3.70;;;;;;;17.10;89.02;99768.66;4949486;29;20210;-70
2023/07/15 03:55:17;;;;;;;6.93;3.60;;;;;;;17.06;89.77;99770.53;4950687;29;20222;-70
2023/07/15 03:57:43;;;;;;;5.43;3.37;;;;;;;17.14;89.31;99770.34;4951834;29;20221;-69
2023/07/15 04:00:17;;;;;;;5.70;3.33;;;;;;;17.13;88.90;99772.16;4946281;29;20198;-72
2023/07/15 04:02:49;;;;;;;4.97;3.13;;;;;;;17.11;88.74;99768.63;4951393;29;20762;-68
2023/07/15 04:05:16;;;;;;;6.60;3.67;;;;;;;17.15;88.35;99783.69;4949516;29;20293;-69
2023/07/15 04:07:43;;;;;;;5.57;3.00;;;;;;;17.16;87.58;99782.78;4948389;29;20209;-70
2023/07/15 04:10:11;;;;;;;6.80;3.57;;;;;;;17.15;88.22;99781.03;4951284;29;20645;-71
2023/07/15 04:12:37;;;;;;;5.73;3.20;;;;;;;17.22;87.85;99777.31;4950242;29;20203;-69
2023/07/15 04:15:05;;;;;;;7.63;3.40;;;;;;;17.27;87.81;99785.22;4951064;29;20230;-69
2023/07/15 04:17:31;;;;;;;7.27;3.80;;;;;;;17.32;87.97;99771.75;4951302;29;20203;-69
2023/07/15 04:19:58;;;;;;;6.37;3.47;;;;;;;17.40;87.63;99784.00;4945900;29;20199;-69
2023/07/15 04:22:24;;;;;;;4.67;3.13;;;;;;;17.43;86.27;99781.25;4945658;29;20206;-69
2023/07/15 04:24:50;;;;;;;7.73;3.53;;;;;;;17.58;85.27;99782.66;4951041;29;20233;-67
2023/07/15 04:27:17;;;;;;;6.53;3.70;;;;;;;17.74;84.78;99777.88;4940811;23;20232;-68
2023/07/15 04:29:44;;;;;;;5.70;3.60;;;;;;;17.79;84.84;99787.53;4931947;29;20209;-67
2023/07/15 04:32:11;;;;;;;4.80;3.30;;;;;;;17.92;84.05;99789.88;4919977;29;20211;-68
2023/07/15 04:34:37;;;;;;;6.00;3.47;;;;;;;17.93;83.70;99780.94;4925792;29;20219;-68
2023/07/15 04:37:04;;;;;;;8.70;3.60;;;;;;;17.95;84.23;99784.44;4932946;29;20241;-68
2023/07/15 04:39:30;;;;;;;6.77;3.70;;;;;;;17.98;83.69;99784.38;4944147;29;20198;-67
2023/07/15 04:41:57;;;;;;;5.20;3.73;;;;;;;17.95;83.71;99782.66;4945360;29;20222;-67
2023/07/15 04:44:23;;;;;;;6.73;4.20;;;;;;;17.95;84.47;99776.41;4948220;29;20199;-67
2023/07/15 04:46:50;;;;;;;5.40;3.43;;;;;;;18.01;84.69;99781.59;4948509;29;20785;-69
2023/07/15 04:49:17;;;;;;;5.07;3.27;;;;;;;18.04;84.71;99776.19;4944533;29;20649;-68
2023/07/15 04:51:44;;;;;;;5.43;3.50;;;;;;;18.19;85.45;99777.56;4943044;29;20201;-68
2023/07/15 04:54:10;;;;;;;6.03;4.17;;;;;;;18.31;83.88;99774.53;4946595;29;20230;-68
2023/07/15 04:56:37;;;;;;;5.83;3.83;;;;;;;18.32;82.92;99774.50;4944565;29;20221;-69
2023/07/15 04:59:03;;;;;;;7.93;3.77;;;;;;;18.37;82.85;99772.56;4936856;29;20195;-68
2023/07/15 05:01:30;;;;;;;5.77;3.43;;;;;;;18.42;82.77;99780.50;4950023;29;20202;-68
2023/07/15 05:03:56;;;;;;;7.00;3.47;;;;;;;18.47;82.72;99779.44;4932174;29;20223;-69
2023/07/15 05:06:23;;;;;;;5.50;3.50;;;;;;;18.56;82.05;99777.41;4941329;29;20666;-68
2023/07/15 05:08:49;;;;;;;5.57;3.67;;;;;;;18.61;82.19;99776.34;4945248;29;20222;-68
2023/07/15 05:11:17;;;;;;;6.47;3.57;;;;;;;18.74;82.15;99783.13;4946584;29;20245;-67
2023/07/15 05:13:43;;;;;;;4.90;3.60;;;;;;;18.83;81.94;99781.13;4949018;29;20199;-68
2023/07/15 05:16:10;;;;;;;7.83;3.80;;;;;;;19.02;81.64;99777.81;4939422;29;20247;-67
2023/07/15 05:18:36;;;;;;;7.30;4.03;;;;;;;19.09;81.67;99778.50;4947398;29;20742;-67
2023/07/15 05:21:03;;;;;;;11.70;4.07;;;;;;;19.26;79.90;99770.81;4942714;29;20194;-68
2023/07/15 05:23:31;;;;;;;5.07;3.20;;;;;;;19.37;79.84;99765.97;4944378;29;20199;-68
2023/07/15 05:26:01;;;;;;;4.27;3.50;;;;;;;19.60;78.51;99764.34;4941729;29;20222;-67
2023/07/15 05:28:30;;;;;;;7.00;3.57;;;;;;;19.88;76.93;99764.31;4947345;29;20198;-68
2023/07/15 05:30:58;;;;;;;6.10;3.57;;;;;;;20.16;75.15;99756.16;4945358;29;20226;-68
2023/07/15 05:33:24;;;;;;;6.33;3.47;;;;;;;20.54;74.66;99754.78;4948892;29;20564;-67
2023/07/15 05:35:51;;;;;;;6.90;3.80;;;;;;;21.06;72.16;99761.72;4943274;29;20784;-67
2023/07/15 05:38:17;;;;;;;9.90;4.25;;;;;;;21.59;69.51;99756.88;4935837;29;20199;-67
2023/07/15 05:40:44;;;;;;;9.25;4.53;;;;;;;21.97;68.37;99762.47;4940569;29;20214;-68
2023/07/15 05:43:10;;;;;;;7.68;4.72;;;;;;;22.10;67.21;99755.66;4940424;29;20589;-67
2023/07/15 05:45:37;;;;;;;9.90;5.07;;;;;;;22.16;67.52;99749.97;4950084;29;20244;-67
2023/07/15 05:48:03;;;;;;;9.77;5.43;;;;;;;22.17;67.15;99740.94;4943230;29;20286;-67
2023/07/15 05:50:34;;;;;;;9.75;4.63;;;;;;;22.14;67.47;99741.09;4943700;28;20199;-68
2023/07/15 05:53:00;;;;;;;13.30;5.07;;;;;;;22.11;67.19;99743.91;4941132;29;20202;-68
2023/07/15 05:55:27;;;;;;;11.60;5.07;;;;;;;22.15;67.67;99741.97;4944067;29;20226;-67
2023/07/15 05:57:53;;;;;;;11.73;5.30;;;;;;;22.34;66.73;99747.41;4939709;29;20202;-67
2023/07/15 06:00:20;;;;;;;11.55;4.55;;;;;;;22.46;66.95;99746.88;4940771;29;20219;-68
2023/07/15 06:02:46;;;;;;;8.75;4.70;;;;;;;22.51;66.17;99755.63;4938030;29;20196;-68
2023/07/15 06:05:13;;;;;;;10.88;4.70;;;;;;;22.81;65.31;99754.25;4945075;29;20201;-68
2023/07/15 06:07:39;;;;;;;8.35;4.28;;;;;;;22.95;64.81;99756.28;4945444;29;20205;-68
2023/07/15 06:10:06;;;;;;;10.27;4.40;;;;;;;22.98;64.96;99753.44;4947119;29;20202;-67
2023/07/15 06:12:32;;;;;;;8.57;4.25;;;;;;;22.98;65.87;99742.63;4948734;29;20293;-68
2023/07/15 06:14:59;;;;;;;11.48;4.57;;;;;;;22.91;66.14;99746.56;4942832;29;20222;-68
2023/07/15 06:17:25;;;;;;;15.60;4.90;;;;;;;22.87;66.79;99750.38;4942921;29;20257;-67
2023/07/15 06:19:52;;;;;;;12.35;4.43;;;;;;;22.92;66.46;99758.25;4941700;29;20290;-67
2023/07/15 06:22:18;;;;;;;9.73;4.50;;;;;;;22.98;66.33;99771.47;4945841;29;20934;-68
2023/07/15 06:24:46;;;;;;;9.55;4.95;;;;;;;23.09;64.58;99764.59;4946619;29;20201;-68
2023/07/15 06:27:12;;;;;;;11.18;4.70;;;;;;;23.30;65.09;99764.53;4941860;29;20230;-67
2023/07/15 06:29:38;;;;;;;23.25;5.53;;;;;;;23.38;65.08;99765.88;4951204;29;20210;-68
2023/07/15 06:32:05;;;;;;;15.93;5.57;;;;;;;23.47;64.24;99760.97;4947532;29;20709;-68
2023/07/15 06:34:31;;;;;;;11.40;5.25;;;;;;;23.57;62.98;99756.88;4942773;29;20222;-68
2023/07/15 06:36:58;;;;;;;9.98;4.25;;;;;;;23.70;61.79;99747.22;4940411;29;20218;-68
2023/07/15 06:39:24;;;;;;;14.73;4.90;;;;;;;23.81;59.81;99755.66;4943053;29;20707;-68
2023/07/15 06:41:51;;;;;;;9.93;4.55;;;;;;;23.94;59.27;99758.59;4940472;29;20222;-67
2023/07/15 06:44:17;;;;;;;7.18;4.07;;;;;;;24.03;59.53;99752.75;4943601;29;20682;-67
2023/07/15 06:46:43;;;;;;;8.73;4.30;;;;;;;24.25;58.49;99755.19;4928935;29;20215;-68
2023/07/15 06:49:10;;;;;;;7.45;4.28;;;;;;;24.51;57.59;99761.97;4924617;29;20195;-68
2023/07/15 06:51:36;;;;;;;7.65;4.18;;;;;;;24.90;56.75;99764.31;4930376;29;20209;-67
2023/07/15 06:54:03;;;;;;;9.48;4.05;;;;;;;25.38;56.90;99771.56;4925566;29;20972;-68
2023/07/15 06:56:29;;;;;;;6.13;4.00;;;;;;;25.78;54.88;99762.00;4928836;29;20227;-67
2023/07/15 06:58:56;;;;;;;12.13;4.55;;;;;;;25.88;53.49;99751.47;4929428;29;20226;-67
2023/07/15 07:01:22;;;;;;;10.68;4.22;;;;;;;25.96;53.14;99764.56;4929336;29;20194;-67
2023/07/15 07:03:49;;;;;;;12.48;4.25;;;;;;;26.04;53.63;99752.31;4919705;29;20209;-67
2023/07/15 07:06:16;;;;;;;10.55;3.95;;;;;;;26.32;51.79;99758.75;4926402;29;20719;-67
2023/07/15 07:08:42;;;;;;;12.13;4.00;;;;;;;26.68;50.23;99759.22;4928914;29;20293;-68
2023/07/15 07:11:09;;;;;;;13.88;4.10;;;;;;;27.39;49.40;99761.03;4925838;29;20452;-71
2023/07/15 07:13:35;;;;;;;6.65;4.28;;;;;;;27.71;47.23;99767.09;4928687;29;20210;-71
2023/07/15 07:16:01;;;;;;;8.27;3.92;;;;;;;28.64;44.51;99772.41;4912144;29;20637;-70
2023/07/15 07:18:28;;;;;;;9.68;4.18;;;;;;;31.28;41.24;99773.22;4925724;29;20330;-71
2023/07/15 07:20:56;;;;;;;7.90;3.97;;;;;;;33.62;36.19;99765.56;4931860;29;20297;-71
2023/07/15 07:23:22;;;;;;;10.90;4.10;;;;;;;34.66;32.69;99772.25;4927799;29;20234;-70
2023/07/15 07:25:50;;;;;;;7.30;4.05;;;;;;;33.84;33.76;99779.09;4927560;29;20253;-70
2023/07/15 07:28:20;;;;;;;8.23;3.90;;;;;;;34.22;32.71;99778.22;4924665;29;20207;-71
2023/07/15 07:30:46;;;;;;;9.45;3.70;;;;;;;33.72;34.25;99774.69;4930352;29;20199;-71
2023/07/15 07:33:13;;;;;;;7.35;3.90;;;;;;;33.00;33.40;99789.47;4929492;29;20214;-71
2023/07/15 07:35:39;;;;;;;11.18;3.90;;;;;;;32.49;34.76;99794.91;4908815;29;20255;-71
2023/07/15 07:38:06;;;;;;;7.43;3.92;;;;;;;31.87;36.01;99790.16;4926757;29;20340;-71
2023/07/15 07:40:33;;;;;;;4.85;3.13;;;;;;;31.36;37.25;99785.28;4929142;29;20210;-71
2023/07/15 07:42:59;;;;;;;10.80;4.25;;;;;;;30.40;39.30;99775.69;4929295;29;20274;-71
2023/07/15 07:45:26;;;;;;;8.43;3.60;;;;;;;29.54;41.36;99784.97;4927269;29;20206;-71
2023/07/15 07:47:52;;;;;;;7.88;3.80;;;;;;;29.09;43.46;99788.31;4925403;29;20199;-70
2023/07/15 07:50:18;;;;;;;7.43;3.50;;;;;;;28.69;44.67;99785.69;4924623;29;20743;-70
2023/07/15 07:52:46;;;;;;;9.20;3.63;;;;;;;28.42;43.88;99787.63;4926531;29;20290;-71
2023/07/15 07:55:12;;;;;;;7.82;3.63;;;;;;;28.25;43.41;99797.00;4909745;29;20254;-70
2023/07/15 07:57:39;;;;;;;9.25;3.58;;;;;;;28.03;43.60;99798.44;4926714;29;20250;-67
2023/07/15 08:00:06;;;;;;;9.77;3.70;;;;;;;28.01;44.74;99794.94;4928744;29;20527;-67
2023/07/15 08:02:32;;;;;;;6.90;3.28;;;;;;;27.89;45.19;99800.34;4931276;29;20210;-67
2023/07/15 08:04:59;;;;;;;9.95;3.60;;;;;;;27.98;45.84;99800.59;4929159;29;20691;-68
2023/07/15 08:07:26;;;;;;;6.90;3.50;;;;;;;28.19;43.30;99789.22;4928240;29;20322;-67
2023/07/15 08:09:52;;;;;;;7.18;3.75;;;;;;;28.25;43.00;99791.53;4932518;29;20233;-68
2023/07/15 08:12:19;;;;;;;5.28;3.47;;;;;;;28.32;42.61;99781.97;4926666;29;20691;-68
2023/07/15 08:14:45;;;;;;;6.90;3.45;;;;;;;28.49;43.50;99787.13;4926203;29;20609;-69
2023/07/15 08:17:14;;;;;;;7.63;3.20;;;;;;;28.45;42.41;99782.00;4925147;29;20254;-67
2023/07/15 08:19:40;;;;;;;8.45;3.10;;;;;;;28.45;43.53;99803.81;4933280;29;20211;-68
2023/07/15 08:22:07;;;;;;;6.45;4.03;;;;;;;28.68;43.33;99808.50;4932471;29;20230;-67
2023/07/15 08:24:34;;;;;;;11.13;3.70;;;;;;;29.11;43.31;99816.34;4934413;29;20203;-68
2023/07/15 08:27:00;;;;;;;7.15;3.72;;;;;;;29.75;41.55;99811.66;4929042;29;20670;-68
2023/07/15 08:29:26;;;;;;;10.45;4.30;;;;;;;30.45;40.09;99820.81;4921315;29;20203;-68
2023/07/15 08:31:53;;;;;;;14.50;4.30;;;;;;;30.53;39.14;99828.41;4922996;29;20199;-67
2023/07/15 08:34:23;;;;;;;10.02;4.35;;;;;;;30.53;39.10;99850.28;4920052;29;20212;-68
2023/07/15 08:36:51;;;;;;;9.15;3.80;;;;;;;29.89;40.97;99857.88;4909622;29;20303;-69
2023/07/15 08:39:17;;;;;;;13.27;3.95;;;;;;;29.13;43.42;99861.63;4920357;29;20285;-68
2023/07/15 08:41:44;;;;;;;8.73;4.07;;;;;;;28.62;43.79;99847.06;4913648;29;20204;-69
2023/07/15 08:44:12;;;;;;;11.90;4.32;;;;;;;28.36;44.15;99836.13;4911152;29;20217;-68
2023/07/15 08:46:39;;;;;;;11.05;4.10;;;;;;;28.35;45.12;99828.94;4914323;29;20211;-68
2023/07/15 08:49:06;;;;;;;10.85;4.20;;;;;;;28.33;43.93;99844.50;4914395;29;20200;-68
2023/07/15 08:51:34;;;;;;;5.95;3.65;;;;;;;28.55;43.53;99840.31;4915791;29;20676;-67
2023/07/15 08:54:02;;;;;;;8.65;4.18;;;;;;;28.77;43.87;99840.53;4910345;29;20204;-68
2023/07/15 08:56:30;;;;;;;9.13;3.65;;;;;;;29.07;41.51;99840.25;4913989;29;20223;-68
2023/07/15 08:58:56;;;;;;;7.68;3.67;;;;;;;29.33;40.91;99811.97;4915904;29;20209;-68
2023/07/15 09:01:23;;;;;;;5.82;3.67;;;;;;;29.66;40.57;99806.88;4915274;29;20196;-68
2023/07/15 09:03:49;;;;;;;6.75;3.60;;;;;;;29.82;39.66;99818.38;4915709;29;20204;-68
2023/07/15 09:06:16;;;;;;;11.25;3.70;;;;;;;29.90;39.64;99814.09;4912749;29;20305;-68
2023/07/15 09:08:50;;;;;;;6.38;3.67;;;;;;;29.92;40.14;99817.56;4914643;29;20287;-68
2023/07/15 09:11:16;;;;;;;9.70;3.65;;;;;;;29.85;41.16;99812.69;4915049;29;20202;-68
2023/07/15 09:13:44;;;;;;;7.63;3.60;;;;;;;30.09;39.67;99830.00;4913343;29;20286;-68
2023/07/15 09:16:10;;;;;;;7.15;3.65;;;;;;;30.39;39.51;99834.06;4911393;29;20255;-68
2023/07/15 09:18:42;;;;;;;8.48;4.25;;;;;;;30.54;40.02;99819.22;4913392;29;20707;-68
2023/07/15 09:21:16;;;;;;;9.13;3.97;;;;;;;30.83;39.11;99823.31;4913559;29;20636;-68
2023/07/15 09:23:45;;;;;;;6.07;3.22;;;;;;;31.16;37.61;99829.81;4909697;29;20214;-68
2023/07/15 09:26:12;;;;;;;7.25;3.63;;;;;;;31.32;37.64;99833.06;4928996;29;20278;-67
2023/07/15 09:28:46;;;;;;;13.70;4.00;;;;;;;31.43;37.20;99818.50;4931855;29;20299;-68
2023/07/15 09:31:22;;;;;;;6.70;3.75;;;;;;;31.28;38.00;99822.50;4940005;29;20198;-68
2023/07/15 09:33:48;;;;;;;8.20;4.00;;;;;;;31.39;38.17;99830.69;4924009;29;20209;-68
2023/07/15 09:36:15;;;;;;;9.90;3.88;;;;;;;31.30;37.60;99807.69;4931916;29;20229;-69
2023/07/15 09:38:41;;;;;;;11.25;3.83;;;;;;;31.22;38.24;99814.75;4933957;29;20210;-68
2023/07/15 09:41:09;;;;;;;8.90;3.95;;;;;;;31.07;38.15;99817.72;4933372;29;20546;-68
2023/07/15 09:43:50;;;;;;;9.57;4.20;;;;;;;30.92;38.36;99818.09;4935534;29;20282;-68
2023/07/15 09:46:18;;;;;;;6.43;3.30;;;;;;;30.55;38.90;99815.50;4938093;29;20219;-68
2023/07/15 09:48:48;;;;;;;5.07;3.60;;;;;;;29.91;39.96;99826.75;4929443;29;20195;-68
2023/07/15 09:51:16;;;;;;;6.30;3.83;;;;;;;29.31;43.29;99832.16;4934357;29;20577;-68
2023/07/15 09:53:52;;;;;;;6.90;3.85;;;;;;;28.73;44.79;99832.69;4932794;29;20205;-68
2023/07/15 09:56:35;;;;;;;8.68;4.07;;;;;;;28.19;44.75;99835.50;4915523;29;20222;-68
2023/07/15 09:59:14;;;;;;;5.82;3.47;;;;;;;28.10;45.44;99826.13;4926893;29;20657;-68
2023/07/15 10:01:46;;;;;;;9.88;3.85;;;;;;;28.11;46.33;99807.94;4929282;29;20241;-68
2023/07/15 10:04:21;;;;;;;5.70;3.58;;;;;;;28.07;47.14;99820.88;4930748;29;20206;-68
2023/07/15 10:06:49;;;;;;;6.82;4.10;;;;;;;28.04;47.51;99829.28;4933627;29;20285;-68
2023/07/15 10:09:17;;;;;;;5.88;4.05;;;;;;;28.07;48.32;99834.50;4929212;29;20207;-68
2023/07/15 10:11:44;;;;;;;9.55;3.83;;;;;;;28.11;48.00;99825.16;4931713;29;20326;-68
2023/07/15 10:14:11;;;;;;;6.68;4.20;;;;;;;28.12;48.91;99829.63;4913465;29;20293;-68
2023/07/15 10:16:37;;;;;;;5.07;4.00;;;;;;;28.09;48.56;99814.38;4930566;29;20274;-68
2023/07/15 10:19:24;;;;;;;10.40;4.35;;;;;;;28.01;48.60;99815.84;4929924;29;20207;-68
2023/07/15 10:21:58;;;;;;;11.13;4.05;;;;;;;28.17;49.06;99819.28;4929931;29;20209;-68
2023/07/15 10:24:25;;;;;;;6.55;3.92;;;;;;;28.63;48.48;99816.13;4940415;29;20239;-68
2023/07/15 10:26:53;;;;;;;8.25;3.85;;;;;;;29.20;47.01;99807.50;4923357;24;20228;-70
2023/07/15 10:29:22;;;;;;;5.03;3.50;;;;;;;29.76;45.49;99803.34;4911619;29;20207;-68
2023/07/15 10:32:09;;;;;;;6.65;3.55;;;;;;;30.49;43.28;99832.38;4905116;29;20208;-68
2023/07/15 10:34:38;;;;;;;4.57;3.42;;;;;;;31.11;41.60;99841.09;4904746;29;20203;-68
2023/07/15 10:37:11;;;;;;;6.13;3.60;;;;;;;31.27;41.02;99839.91;4912443;29;20223;-68
2023/07/15 10:39:38;;;;;;;5.18;3.17;;;;;;;30.88;41.72;99835.75;4925872;29;20199;-68
2023/07/15 10:42:10;;;;;;;4.28;3.20;;;;;;;30.86;41.94;99855.88;4932306;29;20587;-72
2023/07/15 10:44:52;;;;;;;8.40;3.55;;;;;;;30.79;41.88;99840.91;4927694;29;20586;-69
2023/07/15 10:47:20;;;;;;;5.63;3.60;;;;;;;30.70;42.85;99846.25;4927337;29;20301;-70
2023/07/15 10:49:49;;;;;;;5.10;3.58;;;;;;;30.57;43.10;99838.13;4928245;29;20556;-69
2023/07/15 10:52:19;;;;;;;8.65;3.75;;;;;;;30.37;44.05;99814.19;4931557;29;20206;-68
2023/07/15 10:54:46;;;;;;;4.55;3.05;;;;;;;30.48;44.20;99803.31;4906550;29;20210;-71
2023/07/15 10:57:14;;;;;;;7.45;3.67;;;;;;;30.42;44.30;99796.47;4928866;29;20219;-69
2023/07/15 10:59:43;;;;;;;5.03;3.45;;;;;;;30.61;43.44;99812.31;4926854;29;20282;-72
2023/07/15 11:02:10;;;;;;;5.25;3.42;;;;;;;30.49;44.49;99808.66;4924644;29;20290;-73
2023/07/15 11:04:38;;;;;;;8.10;3.65;;;;;;;30.26;44.93;99809.56;4925950;29;20736;-68
2023/07/15 11:07:07;;;;;;;5.15;3.50;;;;;;;29.70;47.07;99806.53;4919770;29;20223;-68
2023/07/15 11:09:40;;;;;;;6.20;3.60;;;;;;;29.42;49.11;99793.16;4924755;29;20638;-70
2023/07/15 11:12:08;;;;;;;7.90;3.50;;;;;;;29.21;54.89;99757.41;4927195;29;20210;-68
2023/07/15 11:14:39;;;;;;;6.13;3.70;;;;;;;29.21;53.59;99790.16;4925330;29;20198;-68
2023/07/15 11:17:07;;;;;;;6.78;3.72;;;;;;;29.18;50.16;99783.06;4927986;29;20771;-71
2023/07/15 11:19:33;;;;;;;4.95;3.60;;;;;;;29.63;48.86;99764.31;4928911;29;20645;-69
2023/07/15 11:22:05;;;;;;;7.28;3.50;;;;;;;30.17;48.32;99767.44;4931153;29;20329;-68
2023/07/15 11:24:32;;;;;;;4.43;3.60;;;;;;;30.63;46.32;99772.06;4930903;29;20243;-70
2023/07/15 11:27:00;;;;;;;7.00;3.95;;;;;;;30.58;46.81;99773.38;4926273;29;20226;-69
2023/07/15 11:29:28;;;;;;;8.68;3.83;;;;;;;30.35;46.49;99762.38;4928355;29;20199;-72
2023/07/15 11:31:56;;;;;;;5.80;4.18;;;;;;;30.01;46.45;99760.50;4926899;29;20205;-72
2023/07/15 11:34:25;;;;;;;6.60;4.30;;;;;;;29.69;50.28;99771.16;4929533;29;20202;-71